Little Fort, Canada
Current Conditions -  °F | °C
As of 7:00 PM on Thursday 27 Nov 2014 (Local Time) from CYKA Reporting Station
Scattered Clouds Scattered Clouds  
Wind Chill: 39°   Ceiling: Unl
Heat Index: 46°   Visibility: 40mi
Dew Point: 37°   Wind: 18mph
Humidity: 71%   Direction: 70°ENE
Pressure: 29.41"   Gusts: 26mph
Location:  51.43°N, 120.2°W
Report Text: CYKA 280300Z 07016G23KT 40SM FEW060 SCT210 08/03 A2941 RMK SC2CI2 PRESFR SLP971
Loading
Personal Weather Stations






























Interactive Weather Map New forecast layout! Learn more

10-Day Weather Forecast

Advertisements
Track Severe Weather on mobile